Time;durP1;ratioP1;P1;durP2;ratioP2;P2;SDS_P1;SDS_P2;PMS_P1;PMS_P2;Temp;Humidity;BMP_temperature;BMP_pressure;BME280_temperature;BME280_humidity;BME280_pressure;Samples;Min_cycle;Max_cycle;Signal;HPM_P1;HPM_P2
2022/08/19 00:01:23;;;;;;;13.88;9.43;;;716.90;1638.40;;;;;;4977869;28;20502;-84
2022/08/19 00:03:49;;;;;;;14.93;9.20;;;692.10;1638.40;;;;;;4976924;28;20108;-77
2022/08/19 00:06:15;;;;;;;16.90;9.68;;;692.00;1664.00;;;;;;4993968;28;20484;-80
2022/08/19 00:08:41;;;;;;;17.98;10.57;;;692.10;1664.00;;;;;;4993974;28;20030;-76
2022/08/19 00:11:07;;;;;;;17.90;9.43;;;691.90;1664.00;;;;;;4994084;28;20023;-85
2022/08/19 00:13:33;;;;;;;18.10;9.70;;;691.90;1664.00;;;;;;4994113;28;20098;-76
2022/08/19 00:15:59;;;;;;;25.88;10.77;;;691.90;1664.00;;;;;;4993966;28;20044;-77
2022/08/19 00:18:25;;;;;;;24.45;11.40;;;691.70;1689.60;;;;;;4976275;28;20395;-80
2022/08/19 00:20:51;;;;;;;24.23;10.98;;;691.60;1664.00;;;;;;4993658;28;20423;-77
2022/08/19 00:23:17;;;;;;;18.50;10.43;;;691.60;1664.00;;;;;;4993984;28;20038;-78
2022/08/19 00:25:42;;;;;;;24.40;10.18;;;691.60;1664.00;;;;;;4994546;28;20185;-77
2022/08/19 00:28:08;;;;;;;18.10;9.77;;;691.60;1664.00;;;;;;4977429;28;20069;-83
2022/08/19 00:30:34;;;;;;;21.38;10.35;;;691.50;1664.00;;;;;;4975585;28;20038;-81
2022/08/19 00:33:00;;;;;;;22.77;11.00;;;691.50;1664.00;;;;;;4993588;28;20021;-77
2022/08/19 00:35:27;;;;;;;15.80;10.43;;;691.50;1664.00;;;;;;4992136;28;20480;-81
2022/08/19 00:37:53;;;;;;;17.42;9.75;;;691.40;1664.00;;;;;;4957913;28;20037;-79
2022/08/19 00:40:20;;;;;;;19.73;10.68;;;691.70;1664.00;;;;;;4975185;28;20031;-84
2022/08/19 00:42:45;;;;;;;20.20;10.20;;;691.50;1664.00;;;;;;4974851;28;20046;-85
2022/08/19 00:45:24;;;;;;;19.05;10.95;;;691.50;1664.00;;;;;;4982333;28;20061;-77
2022/08/19 00:47:49;;;;;;;16.67;10.00;;;691.60;1664.00;;;;;;4984473;28;20074;-88
2022/08/19 00:50:19;;;;;;;22.08;11.57;;;691.50;1664.00;;;;;;4984498;28;20427;-80
2022/08/19 00:52:48;;;;;;;19.02;10.25;;;691.40;1664.00;;;;;;4983627;28;20027;-78
2022/08/19 00:55:23;;;;;;;21.05;11.55;;;691.30;1664.00;;;;;;4982875;28;20035;-77
2022/08/19 00:58:12;;;;;;;20.98;10.63;;;691.30;1664.00;;;;;;4982861;28;20026;-79
2022/08/19 01:00:38;;;;;;;18.50;10.85;;;691.30;1664.00;;;;;;4983923;28;20476;-78
2022/08/19 01:03:10;;;;;;;16.02;9.88;;;691.30;1664.00;;;;;;4983610;28;20428;-76
2022/08/19 01:05:37;;;;;;;17.73;10.73;;;691.30;1664.00;;;;;;4997153;28;20026;-78
2022/08/19 01:08:05;;;;;;;24.00;10.95;;;691.20;1689.60;;;;;;4991105;28;20049;-76
2022/08/19 01:10:36;;;;;;;15.70;11.15;;;666.50;1689.60;;;;;;4982878;28;20071;-79
2022/08/19 01:13:03;;;;;;;19.13;10.45;;;666.50;1689.60;;;;;;4982900;28;20034;-80
2022/08/19 01:15:33;;;;;;;25.20;11.35;;;691.20;1689.60;;;;;;4982223;28;20026;-83
2022/08/19 01:18:06;;;;;;;17.90;10.88;;;691.20;1664.00;;;;;;4983610;28;20022;-76
2022/08/19 01:20:33;;;;;;;14.23;10.00;;;666.50;1689.60;;;;;;4983970;28;20037;-84
2022/08/19 01:22:59;;;;;;;22.98;10.77;;;666.50;1689.60;;;;;;4982246;28;20074;-76
2022/08/19 01:25:34;;;;;;;27.25;11.70;;;691.20;1689.60;;;;;;4982843;28;20026;-83
2022/08/19 01:28:00;;;;;;;21.60;11.50;;;666.20;1715.20;;;;;;4983279;28;20029;-76
2022/08/19 01:30:30;;;;;;;22.52;11.75;;;666.20;1715.20;;;;;;4988934;28;20480;-77
2022/08/19 01:32:57;;;;;;;17.55;11.20;;;666.20;1715.20;;;;;;4993400;28;20034;-76
2022/08/19 01:35:24;;;;;;;21.52;10.95;;;666.20;1715.20;;;;;;4993488;28;20141;-82
2022/08/19 01:38:07;;;;;;;21.58;10.60;;;666.00;1740.80;;;;;;4987687;28;20029;-76
2022/08/19 01:40:34;;;;;;;28.98;11.10;;;665.90;1740.80;;;;;;4986425;28;20033;-81
2022/08/19 01:43:01;;;;;;;19.77;10.82;;;665.80;1766.40;;;;;;4993208;28;20073;-83
2022/08/19 01:45:29;;;;;;;24.90;10.93;;;665.70;1766.40;;;;;;4993716;28;20022;-81
2022/08/19 01:47:56;;;;;;;17.63;11.25;;;665.80;1766.40;;;;;;4987323;28;20031;-76
2022/08/19 01:50:22;;;;;;;17.35;10.77;;;665.90;1766.40;;;;;;4984941;28;20415;-78
2022/08/19 01:52:48;;;;;;;14.00;10.02;;;665.90;1766.40;;;;;;4984955;28;20085;-76
2022/08/19 01:55:17;;;;;;;20.48;9.88;;;665.90;1766.40;;;;;;4982637;28;20030;-78
2022/08/19 01:57:47;;;;;;;20.92;10.98;;;665.80;1766.40;;;;;;4984323;28;20030;-79
2022/08/19 02:00:18;;;;;;;21.67;9.93;;;665.80;1792.00;;;;;;4983524;28;20528;-83
2022/08/19 02:02:44;;;;;;;13.27;10.02;;;665.90;1766.40;;;;;;4982267;28;20023;-77
2022/08/19 02:05:11;;;;;;;20.85;10.75;;;665.90;1766.40;;;;;;4982058;28;20114;-76
2022/08/19 02:07:39;;;;;;;18.65;11.00;;;665.90;1766.40;;;;;;4982017;28;20046;-83
2022/08/19 02:10:07;;;;;;;19.10;10.68;;;665.90;1766.40;;;;;;4983512;28;20053;-79
2022/08/19 02:12:33;;;;;;;14.07;10.90;;;665.70;1792.00;;;;;;4979823;28;20057;-83
2022/08/19 02:15:00;;;;;;;13.88;9.95;;;665.60;1817.60;;;;;;4985669;28;20097;-76
2022/08/19 02:17:28;;;;;;;20.08;10.35;;;665.70;1792.00;;;;;;4981769;28;20114;-80
2022/08/19 02:19:54;;;;;;;15.07;10.32;;;665.60;1792.00;;;;;;4987392;28;20022;-75
2022/08/19 02:22:20;;;;;;;27.92;11.98;;;640.90;1792.00;;;;;;4986186;28;20027;-76
2022/08/19 02:24:47;;;;;;;21.90;10.85;;;640.80;1792.00;;;;;;4987368;28;20022;-83
2022/08/19 02:27:14;;;;;;;17.38;11.27;;;640.70;1792.00;;;;;;4986115;28;20106;-78
2022/08/19 02:29:40;;;;;;;26.02;12.63;;;640.50;1843.20;;;;;;4985712;28;20033;-75
2022/08/19 02:32:07;;;;;;;23.92;11.73;;;640.40;1843.20;;;;;;4986927;28;20042;-76
2022/08/19 02:34:33;;;;;;;22.30;10.77;;;640.60;1868.80;;;;;;4984732;28;20035;-83
2022/08/19 02:36:59;;;;;;;18.35;11.70;;;640.40;1868.80;;;;;;4986429;28;20042;-84
2022/08/19 02:39:26;;;;;;;21.40;11.98;;;640.40;1868.80;;;;;;4989189;28;20128;-83
2022/08/19 02:41:51;;;;;;;24.17;11.90;;;640.50;1843.20;;;;;;4985021;28;20043;-84
2022/08/19 02:44:17;;;;;;;20.05;11.13;;;640.50;1843.20;;;;;;4988557;28;20041;-78
2022/08/19 02:46:46;;;;;;;23.42;11.65;;;640.50;1843.20;;;;;;4994383;28;20041;-76
2022/08/19 02:49:12;;;;;;;17.75;11.80;;;640.60;1843.20;;;;;;4987546;28;20018;-76
2022/08/19 02:51:41;;;;;;;17.30;10.63;;;640.70;1843.20;;;;;;4986823;28;20022;-79
2022/08/19 02:54:08;;;;;;;21.45;11.38;;;640.70;1843.20;;;;;;4964546;28;20468;-75
2022/08/19 02:56:36;;;;;;;16.13;10.88;;;640.80;1817.60;;;;;;4987044;28;20443;-75
2022/08/19 02:59:09;;;;;;;22.80;11.35;;;640.80;1843.20;;;;;;4984261;28;20026;-84
2022/08/19 03:01:40;;;;;;;19.10;10.57;;;640.90;1817.60;;;;;;4987110;28;20035;-75
2022/08/19 03:04:08;;;;;;;18.48;11.07;;;665.70;1817.60;;;;;;4980956;28;20159;-75
2022/08/19 03:06:38;;;;;;;17.90;10.40;;;665.70;1817.60;;;;;;4986498;28;20034;-80
2022/08/19 03:09:04;;;;;;;22.85;10.02;;;665.70;1817.60;;;;;;4985158;28;20788;-83
2022/08/19 03:11:34;;;;;;;17.92;10.23;;;665.60;1843.20;;;;;;4985264;28;20468;-77
2022/08/19 03:14:03;;;;;;;23.67;10.35;;;640.90;1817.60;;;;;;4986792;28;20384;-76
2022/08/19 03:16:31;;;;;;;16.58;10.60;;;665.60;1868.80;;;;;;4985741;28;20065;-89
2022/08/19 03:19:00;;;;;;;19.08;9.95;;;665.60;1868.80;;;;;;4984503;28;20102;-85
2022/08/19 03:21:28;;;;;;;20.27;10.07;;;665.70;1843.20;;;;;;4966759;28;20022;-86
2022/08/19 03:23:56;;;;;;;19.70;10.45;;;665.80;1843.20;;;;;;4968901;28;20031;-79
2022/08/19 03:26:22;;;;;;;23.55;9.80;;;665.80;1843.20;;;;;;4969692;28;20034;-84
2022/08/19 03:28:49;;;;;;;22.90;10.63;;;665.90;1843.20;;;;;;4982995;28;20457;-85
2022/08/19 03:31:17;;;;;;;19.65;9.23;;;665.80;1843.20;;;;;;4985837;28;20027;-78
2022/08/19 03:33:44;;;;;;;17.70;9.60;;;665.70;1868.80;;;;;;4987628;28;20109;-82
2022/08/19 03:36:11;;;;;;;19.50;10.25;;;665.70;1868.80;;;;;;4967067;28;20084;-85
2022/08/19 03:38:42;;;;;;;28.15;10.05;;;665.80;1868.80;;;;;;4992979;28;20019;-86
2022/08/19 03:41:13;;;;;;;17.30;9.82;;;665.90;1868.80;;;;;;4978968;28;20161;-87
2022/08/19 03:43:40;;;;;;;16.98;8.70;;;666.00;1868.80;;;;;;4979360;28;20019;-86
2022/08/19 03:46:13;;;;;;;14.43;9.45;;;665.70;1894.40;;;;;;4996404;28;20084;-86
2022/08/19 03:48:41;;;;;;;18.35;10.18;;;665.80;1894.40;;;;;;4996533;28;20025;-83
2022/08/19 03:51:08;;;;;;;14.95;9.48;;;665.70;1894.40;;;;;;4996260;28;20158;-89
2022/08/19 03:53:35;;;;;;;18.83;9.05;;;665.60;1920.00;;;;;;4996186;28;20022;-90
2022/08/19 03:56:01;;;;;;;22.80;9.75;;;640.60;1920.00;;;;;;4978426;28;20054;-89
2022/08/19 03:58:29;;;;;;;17.02;8.65;;;640.90;1920.00;;;;;;4996138;28;20077;-82
2022/08/19 04:00:58;;;;;;;14.82;8.48;;;640.90;1920.00;;;;;;4996092;28;20023;-80
2022/08/19 04:03:26;;;;;;;12.82;8.25;;;640.90;1945.60;;;;;;4996453;28;20042;-85
2022/08/19 04:05:53;;;;;;;24.38;9.70;;;640.90;1945.60;;;;;;4996230;28;20128;-85
2022/08/19 04:08:20;;;;;;;20.00;8.30;;;665.60;1971.20;;;;;;4995885;28;20026;-87
2022/08/19 04:10:47;;;;;;;21.67;9.15;;;640.90;1945.60;;;;;;4996170;28;20027;-83
2022/08/19 04:13:16;;;;;;;20.75;9.45;;;640.90;1945.60;;;;;;4995930;28;20534;-81
2022/08/19 04:15:43;;;;;;;14.77;9.20;;;640.90;1945.60;;;;;;4995795;28;20088;-84
2022/08/19 04:18:09;;;;;;;13.30;9.20;;;640.90;1945.60;;;;;;4998809;28;20014;-78
2022/08/19 04:20:43;;;;;;;18.65;9.38;;;665.60;1971.20;;;;;;5014783;28;20034;-79
2022/08/19 04:23:09;;;;;;;14.18;10.60;;;665.60;1945.60;;;;;;5011812;28;20050;-84
2022/08/19 04:25:41;;;;;;;14.32;8.68;;;640.70;1945.60;;;;;;4996739;28;20018;-79
2022/08/19 04:28:09;;;;;;;17.67;10.23;;;640.80;1945.60;;;;;;4995759;28;20022;-84
2022/08/19 04:30:44;;;;;;;15.50;9.80;;;640.80;1945.60;;;;;;4995703;28;20022;-83
2022/08/19 04:33:15;;;;;;;18.60;10.37;;;640.70;1971.20;;;;;;4995486;28;20022;-85
2022/08/19 04:35:48;;;;;;;14.70;9.38;;;640.70;1971.20;;;;;;4995386;28;20339;-84
2022/08/19 04:38:14;;;;;;;18.60;10.25;;;640.70;1971.20;;;;;;4995216;28;20022;-78
2022/08/19 04:43:35;;;;;;;19.42;9.40;;;640.70;1971.20;;;;;;4954653;28;20078;-83
2022/08/19 04:46:10;;;;;;;15.02;9.65;;;665.60;1996.80;;;;;;4954373;28;20143;-82
2022/08/19 04:48:36;;;;;;;16.77;9.25;;;665.60;1996.80;;;;;;4955310;28;20035;-84
2022/08/19 04:51:07;;;;;;;14.05;9.50;;;665.60;1996.80;;;;;;4954981;28;20104;-85
2022/08/19 04:53:37;;;;;;;18.60;9.85;;;665.60;1996.80;;;;;;4954304;28;20051;-87
2022/08/19 04:56:09;;;;;;;16.38;9.73;;;665.70;1996.80;;;;;;4948685;29;20031;-87
2022/08/19 04:58:36;;;;;;;17.63;9.75;;;665.80;1971.20;;;;;;4954675;28;20034;-89
2022/08/19 05:01:02;;;;;;;15.93;9.55;;;666.00;1996.80;;;;;;4954659;28;20035;-89
2022/08/19 05:03:33;;;;;;;19.35;9.40;;;666.00;1996.80;;;;;;4954705;28;20031;-82
2022/08/19 05:06:12;;;;;;;13.15;9.35;;;666.10;1971.20;;;;;;4955010;28;20137;-84
2022/08/19 05:08:42;;;;;;;19.88;9.90;;;666.20;1996.80;;;;;;4953352;28;20126;-85
2022/08/19 05:11:19;;;;;;;19.83;9.57;;;666.20;1971.20;;;;;;4954204;28;20054;-85
2022/08/19 05:13:48;;;;;;;25.15;14.68;;;666.30;1996.80;;;;;;4954376;28;20035;-87
2022/08/19 05:16:15;;;;;;;28.15;17.98;;;666.40;1971.20;;;;;;4954088;28;20041;-86
2022/08/19 05:24:12;;;;;;;14.85;8.23;;;666.50;1945.60;;;;;;4994458;28;20064;-85
2022/08/19 05:26:40;;;;;;;18.42;11.23;;;691.20;1945.60;;;;;;4994428;28;20029;-86
2022/08/19 05:29:08;;;;;;;15.43;8.77;;;691.30;1945.60;;;;;;4994443;28;20030;-83
2022/08/19 05:31:35;;;;;;;20.02;8.52;;;691.40;1920.00;;;;;;4994249;28;20050;-85
2022/08/19 05:34:03;;;;;;;12.18;5.47;;;691.40;1894.40;;;;;;4976605;28;20025;-78
2022/08/19 05:36:34;;;;;;;15.05;6.10;;;691.40;1894.40;;;;;;4994286;28;20030;-79
2022/08/19 05:39:00;;;;;;;11.27;7.47;;;691.40;1894.40;;;;;;4994172;28;20110;-84
2022/08/19 05:41:30;;;;;;;21.92;8.68;;;691.50;1868.80;;;;;;4993975;28;20515;-85
2022/08/19 05:44:01;;;;;;;20.02;11.57;;;691.60;1868.80;;;;;;4994429;28;20172;-86
2022/08/19 05:46:27;;;;;;;15.63;9.60;;;691.70;1868.80;;;;;;4994323;28;20026;-86
2022/08/19 05:48:56;;;;;;;15.35;9.48;;;691.80;1843.20;;;;;;4994407;28;20093;-89
2022/08/19 05:51:22;;;;;;;12.35;8.65;;;691.90;1843.20;;;;;;4994447;28;20026;-81
2022/08/19 05:53:48;;;;;;;12.68;7.95;;;692.10;1817.60;;;;;;4996514;28;20361;-88
2022/08/19 05:56:16;;;;;;;13.35;7.57;;;692.10;1817.60;;;;;;4997885;28;20040;-85
2022/08/19 05:58:44;;;;;;;45.47;9.75;;;716.80;1817.60;;;;;;4980617;28;20030;-77
2022/08/19 06:01:14;;;;;;;23.85;7.60;;;716.80;1817.60;;;;;;4978506;28;20034;-77
2022/08/19 06:03:40;;;;;;;15.43;8.05;;;717.00;1817.60;;;;;;4997478;28;20025;-83
2022/08/19 06:06:07;;;;;;;13.40;7.10;;;717.10;1817.60;;;;;;4979144;28;20035;-80
2022/08/19 06:08:35;;;;;;;15.38;8.02;;;717.20;1766.40;;;;;;4979761;28;20392;-78
2022/08/19 06:11:25;;;;;;;24.08;8.60;;;717.20;1766.40;;;;;;4979320;28;20038;-79
2022/08/19 06:13:53;;;;;;;13.63;8.45;;;717.30;1766.40;;;;;;4997300;28;20030;-79
2022/08/19 06:16:23;;;;;;;13.95;7.32;;;717.50;1766.40;;;;;;4993612;28;20042;-77
2022/08/19 06:18:52;;;;;;;11.00;7.00;;;717.70;1740.80;;;;;;4992973;28;20080;-79
2022/08/19 06:21:23;;;;;;;15.40;7.53;;;742.40;1740.80;;;;;;4995126;28;20105;-85
2022/08/19 06:23:50;;;;;;;9.57;6.00;;;742.40;1715.20;;;;;;4997569;28;20492;-78
2022/08/19 06:26:18;;;;;;;12.65;6.03;;;717.70;1689.60;;;;;;4974786;28;20034;-79
2022/08/19 06:28:46;;;;;;;14.93;5.90;;;742.80;1689.60;;;;;;4970452;28;20042;-81
2022/08/19 06:31:16;;;;;;;12.02;5.75;;;742.80;1689.60;;;;;;4995139;28;20037;-80
2022/08/19 06:33:46;;;;;;;13.55;6.28;;;742.90;1638.40;;;;;;4993201;28;20481;-80
2022/08/19 06:36:20;;;;;;;9.02;5.65;;;743.10;1638.40;;;;;;4997150;28;20030;-82
2022/08/19 06:38:46;;;;;;;10.25;5.78;;;743.20;1587.20;;;;;;4997001;28;20033;-85
2022/08/19 06:41:13;;;;;;;10.00;5.25;;;768.10;1612.80;;;;;;4978912;28;20065;-77
2022/08/19 06:43:41;;;;;;;13.13;5.95;;;768.20;1587.20;;;;;;4996759;28;20424;-77
2022/08/19 06:46:11;;;;;;;15.77;5.95;;;768.40;1561.60;;;;;;4975706;28;20031;-85
2022/08/19 06:48:37;;;;;;;8.88;5.75;;;768.60;1561.60;;;;;;4984546;28;20014;-90
2022/08/19 06:51:05;;;;;;;11.80;5.60;;;768.70;1536.00;;;;;;4978571;28;20042;-80
2022/08/19 06:53:32;;;;;;;9.68;5.18;;;768.80;1510.40;;;;;;4996773;28;20022;-81
2022/08/19 06:56:01;;;;;;;9.88;6.05;;;793.60;1536.00;;;;;;4996418;28;20062;-79
2022/08/19 06:58:31;;;;;;;11.15;5.82;;;793.70;1510.40;;;;;;4995557;28;20026;-82
2022/08/19 07:01:00;;;;;;;11.68;6.05;;;793.90;1484.80;;;;;;4995725;28;20074;-78
2022/08/19 07:03:28;;;;;;;8.73;5.50;;;794.10;1484.80;;;;;;4973003;28;20053;-80
2022/08/19 07:05:53;;;;;;;12.88;5.15;;;794.30;1459.20;;;;;;4977917;28;20392;-83
2022/08/19 07:08:19;;;;;;;10.68;4.82;;;794.40;1459.20;;;;;;4994971;28;20077;-88
2022/08/19 07:10:46;;;;;;;8.57;5.10;;;819.20;1408.00;;;;;;4978709;28;20034;-85
2022/08/19 07:13:12;;;;;;;7.93;4.82;;;819.30;1408.00;;;;;;4979445;28;20034;-86
2022/08/19 07:15:37;;;;;;;11.07;5.00;;;819.40;1382.40;;;;;;4996340;28;20378;-82
2022/08/19 07:18:03;;;;;;;9.23;5.32;;;819.50;1382.40;;;;;;4977675;28;20128;-78
2022/08/19 07:20:29;;;;;;;17.98;5.78;;;819.60;1382.40;;;;;;4996207;28;20030;-78
2022/08/19 07:22:55;;;;;;;8.52;4.85;;;819.80;1382.40;;;;;;4978483;28;20057;-79
2022/08/19 07:25:21;;;;;;;8.70;5.60;;;819.80;1356.80;;;;;;4996023;28;20112;-76
2022/08/19 07:27:50;;;;;;;8.25;5.10;;;819.90;1331.20;;;;;;4978680;28;20050;-78
2022/08/19 07:30:16;;;;;;;8.07;5.05;;;820.10;1331.20;;;;;;4978309;28;20480;-83
2022/08/19 07:32:43;;;;;;;13.65;5.60;;;844.80;1356.80;;;;;;4995820;28;20029;-77
2022/08/19 07:35:09;;;;;;;14.82;5.68;;;844.90;1331.20;;;;;;4995843;28;20030;-89
2022/08/19 07:37:36;;;;;;;18.58;5.60;;;845.00;1331.20;;;;;;4995545;28;20116;-80
2022/08/19 07:40:05;;;;;;;13.25;5.40;;;845.10;1305.60;;;;;;4978379;28;20428;-87
2022/08/19 07:42:31;;;;;;;7.28;5.32;;;845.20;1305.60;;;;;;4996294;28;20050;-80
2022/08/19 07:44:58;;;;;;;10.23;5.47;;;845.30;1305.60;;;;;;4996473;28;20098;-86
2022/08/19 07:47:24;;;;;;;11.35;5.32;;;845.30;1305.60;;;;;;5002242;28;20029;-77
2022/08/19 07:49:49;;;;;;;11.38;5.80;;;845.40;1280.00;;;;;;5005832;28;20014;-77
2022/08/19 07:52:16;;;;;;;14.73;6.13;;;845.40;1280.00;;;;;;5004152;28;20165;-83
2022/08/19 07:54:42;;;;;;;15.10;4.75;;;845.50;1280.00;;;;;;4978342;28;20034;-89
2022/08/19 07:57:08;;;;;;;9.85;5.50;;;845.60;1280.00;;;;;;4995529;28;20502;-84
2022/08/19 07:59:35;;;;;;;7.65;5.32;;;845.50;1254.40;;;;;;4995566;28;20023;-78
2022/08/19 08:02:02;;;;;;;8.98;5.15;;;870.50;1228.80;;;;;;4995335;28;20030;-84
2022/08/19 08:09:59;;;;;;;9.90;5.10;;;870.70;1203.20;;;;;;4995353;28;19921;-90
2022/08/19 08:12:30;;;;;;;7.60;4.47;;;870.90;1203.20;;;;;;4995161;28;20041;-77
2022/08/19 08:15:01;;;;;;;9.05;4.85;;;870.90;1203.20;;;;;;4995177;28;20027;-81
2022/08/19 08:17:29;;;;;;;11.57;5.05;;;871.00;1203.20;;;;;;4995085;28;20113;-79
2022/08/19 08:19:56;;;;;;;11.20;5.32;;;871.10;1177.60;;;;;;4995342;28;20038;-79
2022/08/19 08:25:18;;;;;;;13.88;4.97;;;871.30;1177.60;;;;;;4995573;28;20030;-79
2022/08/19 08:27:45;;;;;;;12.57;5.35;;;896.00;1152.00;;;;;;4995309;28;20060;-78
2022/08/19 08:30:15;;;;;;;10.30;5.32;;;896.00;1177.60;;;;;;4995308;28;20030;-87
2022/08/19 08:32:41;;;;;;;9.85;5.07;;;896.10;1152.00;;;;;;4977895;28;20026;-88
2022/08/19 08:35:10;;;;;;;12.18;4.88;;;896.20;1152.00;;;;;;4977463;28;20022;-82
2022/08/19 08:37:36;;;;;;;13.10;5.25;;;896.20;1126.40;;;;;;4994709;28;20030;-83
2022/08/19 08:40:09;;;;;;;12.90;5.53;;;896.30;1152.00;;;;;;4994619;28;20038;-82
2022/08/19 08:42:43;;;;;;;15.30;5.32;;;896.30;1126.40;;;;;;4976906;28;20058;-82
2022/08/19 08:45:15;;;;;;;11.88;4.93;;;896.50;1126.40;;;;;;4994354;28;20026;-89
2022/08/19 08:47:46;;;;;;;12.55;5.43;;;896.60;1126.40;;;;;;4994622;28;20054;-82
2022/08/19 08:50:20;;;;;;;13.07;5.85;;;896.70;1126.40;;;;;;4977567;28;20022;-83
2022/08/19 08:52:52;;;;;;;18.80;6.28;;;896.70;1100.80;;;;;;4977360;28;20045;-89
2022/08/19 08:55:23;;;;;;;12.23;5.22;;;896.90;1100.80;;;;;;4993460;28;20029;-83
2022/08/19 08:57:54;;;;;;;9.23;5.18;;;896.90;1075.20;;;;;;4994493;28;20088;-89
2022/08/19 09:00:28;;;;;;;9.20;5.03;;;896.90;1075.20;;;;;;4977345;28;20381;-83
2022/08/19 09:02:55;;;;;;;17.40;5.55;;;921.70;1100.80;;;;;;4977098;28;20034;-90
2022/08/19 09:05:26;;;;;;;12.25;5.05;;;921.70;1100.80;;;;;;4977265;28;20058;-87
2022/08/19 09:08:20;;;;;;;11.07;5.43;;;921.70;1100.80;;;;;;4994658;28;20030;-84
2022/08/19 09:10:51;;;;;;;9.68;5.45;;;921.70;1100.80;;;;;;4971616;28;20034;-81
2022/08/19 09:13:53;;;;;;;7.55;5.20;;;922.00;1100.80;;;;;;4976988;28;20034;-82
2022/08/19 09:16:21;;;;;;;14.77;5.65;;;922.00;1075.20;;;;;;4976932;28;20034;-90
2022/08/19 09:18:52;;;;;;;8.77;4.95;;;922.00;1075.20;;;;;;4977063;28;20029;-82
2022/08/19 09:21:20;;;;;;;11.95;5.50;;;922.30;1075.20;;;;;;4977084;28;20084;-81
2022/08/19 09:23:45;;;;;;;6.72;5.25;;;922.30;1075.20;;;;;;4975410;28;20069;-77
2022/08/19 09:26:15;;;;;;;12.10;5.57;;;922.40;1049.60;;;;;;4987335;28;20022;-81
2022/08/19 09:28:43;;;;;;;6.88;4.75;;;947.40;1024.00;;;;;;4973354;28;20023;-79
2022/08/19 09:31:21;;;;;;;11.30;5.28;;;948.10;998.40;;;;;;4976505;28;20072;-79
2022/08/19 09:33:48;;;;;;;7.70;5.38;;;973.40;972.80;;;;;;4986323;28;20038;-77
2022/08/19 09:36:16;;;;;;;8.75;4.60;;;998.70;972.80;;;;;;4983368;28;20031;-88
2022/08/19 09:38:42;;;;;;;11.25;4.85;;;999.20;947.20;;;;;;4990121;28;20388;-75
2022/08/19 09:41:14;;;;;;;8.48;4.97;;;999.00;947.20;;;;;;4987530;28;20062;-91
2022/08/19 09:43:43;;;;;;;11.90;4.35;;;998.80;921.60;;;;;;4976119;28;20045;-78
2022/08/19 09:46:09;;;;;;;9.05;4.47;;;998.90;921.60;;;;;;4983697;28;20050;-87
2022/08/19 09:48:40;;;;;;;12.57;5.75;;;999.30;921.60;;;;;;4989657;28;20069;-78
2022/08/19 09:51:15;;;;;;;11.55;5.18;;;1024.20;921.60;;;;;;4980077;28;20023;-87
2022/08/19 09:53:42;;;;;;;11.93;4.35;;;1024.20;921.60;;;;;;4988411;28;20031;-87
2022/08/19 09:56:09;;;;;;;8.02;4.82;;;1024.40;947.20;;;;;;4975118;28;20037;-80
2022/08/19 09:58:36;;;;;;;6.72;4.22;;;1024.40;947.20;;;;;;4992222;28;20129;-79
2022/08/19 10:01:04;;;;;;;11.55;4.60;;;1024.60;921.60;;;;;;4993314;28;20022;-79
2022/08/19 10:03:31;;;;;;;12.90;5.20;;;1024.40;947.20;;;;;;4993310;28;20077;-79
2022/08/19 10:06:02;;;;;;;10.05;4.53;;;1024.60;947.20;;;;;;4993342;28;20030;-78
2022/08/19 10:08:33;;;;;;;9.02;5.07;;;1050.00;947.20;;;;;;4993357;28;20030;-90
2022/08/19 10:11:01;;;;;;;11.20;4.25;;;;;;;;;;4976095;28;20046;-77
2022/08/19 10:13:29;;;;;;;8.45;4.50;;;1049.80;921.60;;;;;;4993039;28;20021;-81
2022/08/19 10:15:57;;;;;;;11.13;4.85;;;1049.70;921.60;;;;;;4993483;28;20039;-88
2022/08/19 10:18:25;;;;;;;10.57;4.45;;;1050.00;921.60;;;;;;4993133;28;20022;-80
2022/08/19 10:20:52;;;;;;;12.55;4.65;;;1050.00;921.60;;;;;;4975928;28;20038;-90
2022/08/19 10:23:19;;;;;;;9.38;4.15;;;1049.80;921.60;;;;;;4993238;28;20041;-77
2022/08/19 10:25:45;;;;;;;8.98;4.47;;;1050.00;921.60;;;;;;4993034;28;20045;-77
2022/08/19 10:28:14;;;;;;;8.45;4.28;;;1050.20;896.00;;;;;;4975442;28;20065;-78
2022/08/19 10:30:40;;;;;;;9.15;4.63;;;1049.80;921.60;;;;;;4992857;28;20029;-77
2022/08/19 10:33:06;;;;;;;10.77;4.45;;;1050.10;896.00;;;;;;4993349;28;20126;-82
2022/08/19 10:35:33;;;;;;;10.85;5.05;;;1050.00;921.60;;;;;;4993167;28;20041;-87
2022/08/19 10:38:01;;;;;;;8.52;4.70;;;1050.20;921.60;;;;;;4970392;28;20042;-79
2022/08/19 10:40:27;;;;;;;10.82;5.22;;;1050.10;896.00;;;;;;4982836;28;20046;-80
2022/08/19 10:42:55;;;;;;;10.40;4.75;;;1050.20;921.60;;;;;;4995629;28;20053;-82
2022/08/19 10:45:23;;;;;;;9.02;4.60;;;1050.40;896.00;;;;;;4979686;28;20029;-81
2022/08/19 10:47:49;;;;;;;10.18;4.80;;;1075.50;870.40;;;;;;4990027;28;20058;-81
2022/08/19 10:53:05;;;;;;;13.37;4.93;;;1075.50;870.40;;;;;;4996801;28;20494;-79
2022/08/19 10:58:17;;;;;;;11.93;4.77;;;1075.30;844.80;;;;;;4990078;28;20173;-85
2022/08/19 11:00:50;;;;;;;13.25;4.60;;;1050.50;870.40;;;;;;4977317;28;20135;-78
2022/08/19 11:03:16;;;;;;;12.52;4.85;;;1075.50;844.80;;;;;;4989890;28;20095;-81
2022/08/19 11:05:41;;;;;;;9.77;4.72;;;1075.20;844.80;;;;;;4984632;28;20030;-85
2022/08/19 11:08:11;;;;;;;12.68;5.63;;;1075.20;870.40;;;;;;4988117;28;20027;-80
2022/08/19 11:10:42;;;;;;;7.40;4.45;;;1075.30;870.40;;;;;;4984126;28;20038;-82
2022/08/19 11:13:07;;;;;;;11.32;5.47;;;1075.80;844.80;;;;;;4974969;28;20022;-78
2022/08/19 11:15:33;;;;;;;18.90;6.30;;;1075.80;844.80;;;;;;4993722;28;20048;-77
2022/08/19 11:17:59;;;;;;;12.85;5.07;;;1075.50;844.80;;;;;;4996123;28;20464;-77
2022/08/19 11:20:25;;;;;;;11.57;4.78;;;1075.80;844.80;;;;;;4995873;28;20033;-78
2022/08/19 11:22:52;;;;;;;11.35;4.45;;;1075.50;870.40;;;;;;4992927;28;20618;-78
2022/08/19 11:25:18;;;;;;;9.35;4.78;;;1100.90;870.40;;;;;;4987630;28;20026;-76
2022/08/19 11:27:45;;;;;;;12.02;5.57;;;1100.80;870.40;;;;;;4987808;28;20023;-77
2022/08/19 11:30:12;;;;;;;14.35;4.55;;;1075.80;844.80;;;;;;4983164;28;20041;-79
2022/08/19 11:32:39;;;;;;;14.65;5.68;;;1075.40;844.80;;;;;;4969462;28;20015;-82
2022/08/19 11:35:06;;;;;;;7.78;4.93;;;1075.40;870.40;;;;;;4980229;28;20426;-88
2022/08/19 11:37:37;;;;;;;9.80;4.97;;;1075.40;844.80;;;;;;4981569;28;20050;-82
2022/08/19 11:40:05;;;;;;;12.80;5.22;;;1075.90;819.20;;;;;;4974495;28;20038;-80
2022/08/19 11:45:15;;;;;;;12.93;4.60;;;1100.80;870.40;;;;;;4992838;28;20519;-81
2022/08/19 11:47:41;;;;;;;8.90;5.07;;;1075.80;844.80;;;;;;4965621;28;20022;-80
2022/08/19 11:50:07;;;;;;;10.25;4.60;;;1100.80;844.80;;;;;;4982719;28;20481;-80
2022/08/19 11:52:32;;;;;;;9.05;4.95;;;1100.80;844.80;;;;;;4988312;28;20033;-81
2022/08/19 11:54:58;;;;;;;10.88;5.20;;;1075.90;844.80;;;;;;4988653;28;20018;-88
2022/08/19 11:57:24;;;;;;;8.82;5.03;;;1100.90;844.80;;;;;;4984497;28;20455;-81
2022/08/19 11:59:52;;;;;;;15.05;4.68;;;1101.20;844.80;;;;;;4968984;28;20031;-81
2022/08/19 12:02:18;;;;;;;10.52;4.78;;;1101.20;819.20;;;;;;4984637;28;20080;-82
2022/08/19 12:04:44;;;;;;;7.22;4.95;;;1101.20;844.80;;;;;;4980408;28;20019;-80
2022/08/19 12:07:10;;;;;;;11.52;5.50;;;1101.20;844.80;;;;;;4983010;28;20030;-81
2022/08/19 12:09:36;;;;;;;13.40;4.75;;;1101.30;819.20;;;;;;4985475;28;20023;-86
2022/08/19 12:12:02;;;;;;;11.25;5.53;;;1101.30;819.20;;;;;;4962693;28;20075;-82
2022/08/19 12:14:30;;;;;;;8.38;5.03;;;1101.50;819.20;;;;;;4977355;28;20077;-86
2022/08/19 12:16:56;;;;;;;8.63;4.80;;;1101.50;819.20;;;;;;4965532;28;20504;-82
2022/08/19 12:19:22;;;;;;;16.40;5.90;;;1101.60;819.20;;;;;;4966219;28;20029;-82
2022/08/19 12:21:49;;;;;;;13.75;5.68;;;1126.50;819.20;;;;;;4982061;28;20034;-86
2022/08/19 12:24:15;;;;;;;14.63;5.35;;;1126.40;819.20;;;;;;4963769;28;20374;-82
2022/08/19 12:26:41;;;;;;;10.02;5.15;;;1126.40;819.20;;;;;;4982144;28;20023;-85
2022/08/19 12:29:08;;;;;;;9.32;5.10;;;1101.30;793.60;;;;;;4992353;28;20034;-82
2022/08/19 12:31:34;;;;;;;9.98;4.75;;;1101.40;819.20;;;;;;4994784;28;20522;-82
2022/08/19 12:34:02;;;;;;;7.78;4.97;;;1101.60;819.20;;;;;;4994444;28;20031;-80
2022/08/19 12:36:28;;;;;;;8.88;4.93;;;1126.50;844.80;;;;;;4994165;28;20125;-81
2022/08/19 12:38:53;;;;;;;11.45;5.43;;;1101.60;793.60;;;;;;4977094;28;20121;-81